Flight Briefing for CMB821

Departure Arrival
Patrick Air Force Base (KCOF)
Click to view FAA NOTAMS
Joint Base McGuire Dix Lakehurst (KWRI)
Click to view FAA NOTAMS
Departure Time Arrival Time
N/A N/A
Aircraft Distance
B757-200SF 768nm
Departure METAR Arrival METAR
KCOF 221156Z AUTO 29005KT 10SM CLR 13/09 A3005 RMK AO2 SLP180 T01250091 10152 20122 52014 $ KWRI 221156Z AUTO 31016G25KT 10SM -RA OVC015 04/04 A2934 RMK AO2 PK WND 29031/1056 CIG 014 RWY18 SLP936 P0006 60024 70102 T00420042 10082 20040 53024
Suggested Route
APOLO ETECK AR18 DIW J174 SWL J121 SIE V44 PANZE V184 ZIGGI


View recent IFR Routes data
Notes
USTRANSCOM CONTRACT FLIGHT

Charts and Procedures

Charts for KCOF
No chart available
Charts for KWRI
No chart available

Windy.com Weather Map